Limnos Airport


Codes: LGLM/LXS
Name: Limnos Airport
City: Limnos Island
Country: Greece
Elevation: 14 ft.
Wikipedia:

Photos at Limnos Airport


   Photos courtesy of SpottingLog. You can add your own sightings and photos by signing up for a free trial today.



No photos found.

Weather at Limnos Airport


Time (UTC)DescriptionTempratureWindCloud coverageVisibilityPressureHumidity
16-Jun-2024 00:00Clear Sky21°C11 mph, NE0%10000m1010hPa73%
16-Jun-2024 03:00Clear Sky21°C11 mph, NE0%10000m1010hPa74%
16-Jun-2024 06:00Clear Sky22°C11 mph, NE0%10000m1011hPa69%
16-Jun-2024 09:00Clear Sky24°C13 mph, NE0%10000m1012hPa68%
16-Jun-2024 12:00Clear Sky25°C9 mph, NE0%10000m1012hPa58%
16-Jun-2024 15:00Clear Sky26°C4 mph, N1%10000m1011hPa52%
16-Jun-2024 18:00Clear Sky24°C7 mph, N3%10000m1011hPa56%
16-Jun-2024 21:00Scattered Clouds24°C9 mph, NE35%10000m1012hPa66%
17-Jun-2024 00:00Broken Clouds23°C9 mph, NE57%10000m1012hPa67%
17-Jun-2024 03:00Clear Sky23°C9 mph, NE0%10000m1013hPa77%
17-Jun-2024 06:00Clear Sky24°C9 mph, NE0%10000m1014hPa68%
17-Jun-2024 09:00Clear Sky25°C11 mph, NE2%10000m1014hPa63%
17-Jun-2024 12:00Clear Sky26°C11 mph, NE1%10000m1013hPa56%
17-Jun-2024 15:00Scattered Clouds27°C7 mph, NW27%10000m1013hPa54%
17-Jun-2024 18:00Broken Clouds25°C9 mph, NW63%10000m1013hPa60%
17-Jun-2024 21:00Scattered Clouds24°C11 mph, NE47%10000m1014hPa67%
18-Jun-2024 00:00Scattered Clouds24°C13 mph, NE38%10000m1014hPa71%
18-Jun-2024 03:00Scattered Clouds23°C18 mph, NE34%10000m1015hPa73%
18-Jun-2024 06:00Scattered Clouds24°C18 mph, NE29%10000m1016hPa64%
18-Jun-2024 09:00Clear Sky25°C18 mph, NE0%10000m1016hPa59%
18-Jun-2024 12:00Clear Sky26°C9 mph, N0%10000m1015hPa55%
18-Jun-2024 15:00Clear Sky27°C11 mph, N0%10000m1015hPa56%
18-Jun-2024 18:00Clear Sky25°C11 mph, NE0%10000m1015hPa67%
18-Jun-2024 21:00Clear Sky24°C22 mph, NE0%10000m1016hPa67%
19-Jun-2024 00:00Clear Sky24°C20 mph, NE0%10000m1015hPa68%
19-Jun-2024 03:00Clear Sky23°C20 mph, NE0%10000m1015hPa69%
19-Jun-2024 06:00Clear Sky23°C22 mph, NE0%10000m1016hPa75%
19-Jun-2024 09:00Clear Sky25°C18 mph, NE0%10000m1016hPa65%
19-Jun-2024 12:00Clear Sky26°C11 mph, N0%10000m1014hPa59%
19-Jun-2024 15:00Clear Sky27°C7 mph, N0%10000m1013hPa58%
19-Jun-2024 18:00Clear Sky25°C11 mph, NE0%10000m1013hPa71%
19-Jun-2024 21:00Clear Sky24°C11 mph, NE0%10000m1014hPa72%
20-Jun-2024 00:00Clear Sky23°C20 mph, NE0%10000m1014hPa75%
20-Jun-2024 03:00Clear Sky23°C13 mph, NE1%10000m1013hPa76%
20-Jun-2024 06:00Clear Sky24°C16 mph, NE1%10000m1014hPa69%
20-Jun-2024 09:00Clear Sky25°C16 mph, NE5%10000m1014hPa62%
20-Jun-2024 12:00Clear Sky27°C9 mph, N4%10000m1013hPa56%
20-Jun-2024 15:00Clear Sky28°C11 mph, N0%10000m1012hPa55%
20-Jun-2024 18:00Clear Sky27°C20 mph, NE1%10000m1012hPa59%
20-Jun-2024 21:00Clear Sky24°C29 mph, NE0%10000m1014hPa68%